sensor_id;sensor_type;location;lat;lon;timestamp;temperature;humidity
23130;DHT22;11734;51.046;13.778;2023-04-25T00:00:21;9.70;99.90
23130;DHT22;11734;51.046;13.778;2023-04-25T00:02:48;9.70;99.90
23130;DHT22;11734;51.046;13.778;2023-04-25T00:05:15;9.70;99.90
23130;DHT22;11734;51.046;13.778;2023-04-25T00:07:43;9.80;99.90
23130;DHT22;11734;51.046;13.778;2023-04-25T00:10:10;9.80;99.90
23130;DHT22;11734;51.046;13.778;2023-04-25T00:12:38;9.80;99.90
23130;DHT22;11734;51.046;13.778;2023-04-25T00:15:07;9.90;99.90
23130;DHT22;11734;51.046;13.778;2023-04-25T00:17:34;9.90;99.90
23130;DHT22;11734;51.046;13.778;2023-04-25T00:20:01;9.90;99.90
23130;DHT22;11734;51.046;13.778;2023-04-25T00:22:33;9.90;99.90
23130;DHT22;11734;51.046;13.778;2023-04-25T00:25:01;10.00;99.90
23130;DHT22;11734;51.046;13.778;2023-04-25T00:27:28;10.00;99.90
23130;DHT22;11734;51.046;13.778;2023-04-25T00:29:54;10.00;99.90
23130;DHT22;11734;51.046;13.778;2023-04-25T00:32:21;10.00;99.90
23130;DHT22;11734;51.046;13.778;2023-04-25T00:34:48;10.00;99.90
23130;DHT22;11734;51.046;13.778;2023-04-25T00:37:15;9.90;99.90
23130;DHT22;11734;51.046;13.778;2023-04-25T00:39:42;10.00;99.90
23130;DHT22;11734;51.046;13.778;2023-04-25T00:42:10;9.90;99.90
23130;DHT22;11734;51.046;13.778;2023-04-25T00:44:41;9.90;99.90
23130;DHT22;11734;51.046;13.778;2023-04-25T00:47:08;9.80;99.90
23130;DHT22;11734;51.046;13.778;2023-04-25T00:49:37;9.80;99.90
23130;DHT22;11734;51.046;13.778;2023-04-25T00:52:04;9.80;99.90
23130;DHT22;11734;51.046;13.778;2023-04-25T00:54:31;9.70;99.90
23130;DHT22;11734;51.046;13.778;2023-04-25T00:56:58;9.70;99.90
23130;DHT22;11734;51.046;13.778;2023-04-25T00:59:28;9.60;99.90
23130;DHT22;11734;51.046;13.778;2023-04-25T01:01:57;9.50;99.90
23130;DHT22;11734;51.046;13.778;2023-04-25T01:04:26;9.60;99.90
23130;DHT22;11734;51.046;13.778;2023-04-25T01:06:54;9.50;99.90
23130;DHT22;11734;51.046;13.778;2023-04-25T01:09:21;9.40;99.90
23130;DHT22;11734;51.046;13.778;2023-04-25T01:11:49;9.40;99.90
23130;DHT22;11734;51.046;13.778;2023-04-25T01:14:16;9.40;99.90
23130;DHT22;11734;51.046;13.778;2023-04-25T01:16:43;9.30;99.90
23130;DHT22;11734;51.046;13.778;2023-04-25T01:19:11;9.20;99.90
23130;DHT22;11734;51.046;13.778;2023-04-25T01:21:39;9.10;99.90
23130;DHT22;11734;51.046;13.778;2023-04-25T01:24:06;9.20;99.90
23130;DHT22;11734;51.046;13.778;2023-04-25T01:26:36;9.10;99.90
23130;DHT22;11734;51.046;13.778;2023-04-25T01:29:05;9.10;99.90
23130;DHT22;11734;51.046;13.778;2023-04-25T01:31:35;9.00;99.90
23130;DHT22;11734;51.046;13.778;2023-04-25T01:34:02;9.00;99.90
23130;DHT22;11734;51.046;13.778;2023-04-25T01:36:29;9.00;99.90
23130;DHT22;11734;51.046;13.778;2023-04-25T01:38:57;9.00;99.90
23130;DHT22;11734;51.046;13.778;2023-04-25T01:41:24;8.90;99.90
23130;DHT22;11734;51.046;13.778;2023-04-25T01:43:51;8.90;99.90
23130;DHT22;11734;51.046;13.778;2023-04-25T01:46:18;8.90;99.90
23130;DHT22;11734;51.046;13.778;2023-04-25T01:48:45;8.90;99.90
23130;DHT22;11734;51.046;13.778;2023-04-25T01:51:13;8.90;99.90
23130;DHT22;11734;51.046;13.778;2023-04-25T01:53:40;8.80;99.90
23130;DHT22;11734;51.046;13.778;2023-04-25T01:56:07;8.80;99.90
23130;DHT22;11734;51.046;13.778;2023-04-25T01:58:35;8.80;99.90
23130;DHT22;11734;51.046;13.778;2023-04-25T02:01:07;8.70;99.90
23130;DHT22;11734;51.046;13.778;2023-04-25T02:03:42;8.70;99.90
23130;DHT22;11734;51.046;13.778;2023-04-25T02:06:19;8.60;99.90
23130;DHT22;11734;51.046;13.778;2023-04-25T02:08:47;8.60;99.90
23130;DHT22;11734;51.046;13.778;2023-04-25T02:11:15;8.70;99.90
23130;DHT22;11734;51.046;13.778;2023-04-25T02:14:02;8.60;99.90
23130;DHT22;11734;51.046;13.778;2023-04-25T02:16:52;8.50;99.90
23130;DHT22;11734;51.046;13.778;2023-04-25T02:19:19;8.50;99.90
23130;DHT22;11734;51.046;13.778;2023-04-25T02:21:46;8.40;99.90
23130;DHT22;11734;51.046;13.778;2023-04-25T02:24:13;8.40;99.90
23130;DHT22;11734;51.046;13.778;2023-04-25T02:26:40;8.30;99.90
23130;DHT22;11734;51.046;13.778;2023-04-25T02:29:08;8.30;99.90
23130;DHT22;11734;51.046;13.778;2023-04-25T02:31:35;8.30;99.90
23130;DHT22;11734;51.046;13.778;2023-04-25T02:34:02;8.30;99.90
23130;DHT22;11734;51.046;13.778;2023-04-25T02:36:29;8.30;99.90
23130;DHT22;11734;51.046;13.778;2023-04-25T02:38:59;8.30;99.90
23130;DHT22;11734;51.046;13.778;2023-04-25T02:41:27;8.20;99.90
23130;DHT22;11734;51.046;13.778;2023-04-25T02:43:55;8.20;99.90
23130;DHT22;11734;51.046;13.778;2023-04-25T02:46:22;8.20;99.90
23130;DHT22;11734;51.046;13.778;2023-04-25T02:49:05;8.20;99.90
23130;DHT22;11734;51.046;13.778;2023-04-25T02:51:33;8.20;99.90
23130;DHT22;11734;51.046;13.778;2023-04-25T02:54:00;8.20;99.90
23130;DHT22;11734;51.046;13.778;2023-04-25T02:56:27;8.20;99.90
23130;DHT22;11734;51.046;13.778;2023-04-25T02:58:55;8.20;99.90
23130;DHT22;11734;51.046;13.778;2023-04-25T03:01:22;8.20;99.90
